sensor_id;sensor_type;location;lat;lon;timestamp;P1;durP1;ratioP1;P2;durP2;ratioP2
19006;SDS011;9636;47.382;8.480;2023-10-13T00:00:11;3.08;;;2.08;;
19006;SDS011;9636;47.382;8.480;2023-10-13T00:02:51;3.40;;;2.00;;
19006;SDS011;9636;47.382;8.480;2023-10-13T00:05:18;1.88;;;1.77;;
19006;SDS011;9636;47.382;8.480;2023-10-13T00:07:47;1.80;;;1.70;;
19006;SDS011;9636;47.382;8.480;2023-10-13T00:10:14;2.60;;;1.80;;
19006;SDS011;9636;47.382;8.480;2023-10-13T00:12:43;1.98;;;1.88;;
19006;SDS011;9636;47.382;8.480;2023-10-13T00:15:14;2.90;;;1.92;;
19006;SDS011;9636;47.382;8.480;2023-10-13T00:17:42;1.85;;;1.63;;
19006;SDS011;9636;47.382;8.480;2023-10-13T00:20:09;1.60;;;1.50;;
19006;SDS011;9636;47.382;8.480;2023-10-13T00:22:59;3.95;;;1.90;;
19006;SDS011;9636;47.382;8.480;2023-10-13T00:25:27;3.83;;;2.20;;
19006;SDS011;9636;47.382;8.480;2023-10-13T00:30:49;2.30;;;2.10;;
19006;SDS011;9636;47.382;8.480;2023-10-13T00:33:17;2.42;;;2.20;;
19006;SDS011;9636;47.382;8.480;2023-10-13T00:35:47;2.22;;;2.03;;
19006;SDS011;9636;47.382;8.480;2023-10-13T00:38:18;2.00;;;1.60;;
19006;SDS011;9636;47.382;8.480;2023-10-13T00:40:45;2.03;;;1.77;;
19006;SDS011;9636;47.382;8.480;2023-10-13T00:43:18;1.73;;;1.63;;
19006;SDS011;9636;47.382;8.480;2023-10-13T00:46:03;3.00;;;1.90;;
19006;SDS011;9636;47.382;8.480;2023-10-13T00:48:33;2.20;;;1.92;;
19006;SDS011;9636;47.382;8.480;2023-10-13T00:51:07;2.80;;;2.17;;
19006;SDS011;9636;47.382;8.480;2023-10-13T00:53:44;2.15;;;1.95;;
19006;SDS011;9636;47.382;8.480;2023-10-13T00:56:13;1.80;;;1.70;;
19006;SDS011;9636;47.382;8.480;2023-10-13T00:58:47;2.25;;;2.05;;
19006;SDS011;9636;47.382;8.480;2023-10-13T01:01:16;1.88;;;1.63;;
19006;SDS011;9636;47.382;8.480;2023-10-13T01:03:47;3.67;;;1.95;;
19006;SDS011;9636;47.382;8.480;2023-10-13T01:06:16;2.38;;;1.73;;
19006;SDS011;9636;47.382;8.480;2023-10-13T01:08:42;2.67;;;1.90;;
19006;SDS011;9636;47.382;8.480;2023-10-13T01:11:15;2.28;;;2.08;;
19006;SDS011;9636;47.382;8.480;2023-10-13T01:13:42;2.00;;;1.80;;
19006;SDS011;9636;47.382;8.480;2023-10-13T01:16:12;1.90;;;1.67;;
19006;SDS011;9636;47.382;8.480;2023-10-13T01:18:38;1.80;;;1.70;;
19006;SDS011;9636;47.382;8.480;2023-10-13T01:21:13;1.98;;;1.70;;
19006;SDS011;9636;47.382;8.480;2023-10-13T01:23:46;2.92;;;1.95;;
19006;SDS011;9636;47.382;8.480;2023-10-13T01:26:15;1.80;;;1.70;;
19006;SDS011;9636;47.382;8.480;2023-10-13T01:28:46;2.20;;;2.00;;
19006;SDS011;9636;47.382;8.480;2023-10-13T01:31:13;3.10;;;2.00;;
19006;SDS011;9636;47.382;8.480;2023-10-13T01:33:49;2.03;;;1.70;;
19006;SDS011;9636;47.382;8.480;2023-10-13T01:36:19;2.17;;;1.92;;
19006;SDS011;9636;47.382;8.480;2023-10-13T01:38:49;2.10;;;1.90;;
19006;SDS011;9636;47.382;8.480;2023-10-13T01:41:16;1.95;;;1.73;;
19006;SDS011;9636;47.382;8.480;2023-10-13T01:43:43;1.92;;;1.75;;
19006;SDS011;9636;47.382;8.480;2023-10-13T01:46:10;2.42;;;1.60;;
19006;SDS011;9636;47.382;8.480;2023-10-13T01:48:38;2.17;;;1.98;;
19006;SDS011;9636;47.382;8.480;2023-10-13T01:51:06;2.72;;;1.92;;
19006;SDS011;9636;47.382;8.480;2023-10-13T01:56:03;2.17;;;1.98;;
19006;SDS011;9636;47.382;8.480;2023-10-13T01:58:36;3.58;;;1.88;;
19006;SDS011;9636;47.382;8.480;2023-10-13T02:01:06;2.33;;;2.00;;
19006;SDS011;9636;47.382;8.480;2023-10-13T02:03:32;2.67;;;2.10;;
19006;SDS011;9636;47.382;8.480;2023-10-13T02:06:06;2.13;;;1.80;;
19006;SDS011;9636;47.382;8.480;2023-10-13T02:08:35;2.17;;;1.90;;
19006;SDS011;9636;47.382;8.480;2023-10-13T02:11:06;1.70;;;1.58;;
19006;SDS011;9636;47.382;8.480;2023-10-13T02:13:32;2.10;;;1.90;;
19006;SDS011;9636;47.382;8.480;2023-10-13T02:16:06;3.22;;;1.92;;
19006;SDS011;9636;47.382;8.480;2023-10-13T02:18:32;2.33;;;1.85;;
19006;SDS011;9636;47.382;8.480;2023-10-13T02:21:06;1.70;;;1.60;;
19006;SDS011;9636;47.382;8.480;2023-10-13T02:23:37;2.10;;;1.60;;
19006;SDS011;9636;47.382;8.480;2023-10-13T02:26:10;1.80;;;1.70;;
19006;SDS011;9636;47.382;8.480;2023-10-13T02:28:52;1.83;;;1.70;;
19006;SDS011;9636;47.382;8.480;2023-10-13T02:31:22;2.00;;;1.80;;
19006;SDS011;9636;47.382;8.480;2023-10-13T02:33:49;2.00;;;1.80;;
19006;SDS011;9636;47.382;8.480;2023-10-13T02:36:16;1.80;;;1.70;;
19006;SDS011;9636;47.382;8.480;2023-10-13T02:38:47;2.42;;;1.85;;
19006;SDS011;9636;47.382;8.480;2023-10-13T02:41:18;2.03;;;1.83;;
19006;SDS011;9636;47.382;8.480;2023-10-13T02:43:50;2.03;;;1.83;;
19006;SDS011;9636;47.382;8.480;2023-10-13T02:46:18;1.88;;;1.77;;
19006;SDS011;9636;47.382;8.480;2023-10-13T02:48:46;1.90;;;1.70;;
19006;SDS011;9636;47.382;8.480;2023-10-13T02:51:18;2.03;;;1.80;;
19006;SDS011;9636;47.382;8.480;2023-10-13T02:53:47;2.08;;;1.70;;
19006;SDS011;9636;47.382;8.480;2023-10-13T02:56:14;1.85;;;1.75;;
19006;SDS011;9636;47.382;8.480;2023-10-13T02:58:46;1.80;;;1.70;;
19006;SDS011;9636;47.382;8.480;2023-10-13T03:01:18;2.60;;;1.90;;
19006;SDS011;9636;47.382;8.480;2023-10-13T03:03:45;1.98;;;1.77;;
19006;SDS011;9636;47.382;8.480;2023-10-13T03:06:15;2.43;;;2.10;;
19006;SDS011;9636;47.382;8.480;2023-10-13T03:08:42;1.95;;;1.67;;
19006;SDS011;9636;47.382;8.480;2023-10-13T03:11:09;1.90;;;1.80;;
19006;SDS011;9636;47.382;8.480;2023-10-13T03:13:37;1.80;;;1.70;;
19006;SDS011;9636;47.382;8.480;2023-10-13T03:16:13;2.08;;;1.88;;
19006;SDS011;9636;47.382;8.480;2023-10-13T03:18:41;1.77;;;1.63;;
19006;SDS011;9636;47.382;8.480;2023-10-13T03:21:16;1.65;;;1.55;;
19006;SDS011;9636;47.382;8.480;2023-10-13T03:23:53;2.28;;;2.08;;
19006;SDS011;9636;47.382;8.480;2023-10-13T03:26:20;2.08;;;1.88;;
19006;SDS011;9636;47.382;8.480;2023-10-13T03:28:49;2.10;;;1.83;;
19006;SDS011;9636;47.382;8.480;2023-10-13T03:31:19;1.97;;;1.57;;
19006;SDS011;9636;47.382;8.480;2023-10-13T03:33:52;1.83;;;1.67;;
19006;SDS011;9636;47.382;8.480;2023-10-13T03:36:24;1.77;;;1.60;;
19006;SDS011;9636;47.382;8.480;2023-10-13T03:39:22;2.63;;;2.00;;
19006;SDS011;9636;47.382;8.480;2023-10-13T03:41:52;2.15;;;1.95;;
19006;SDS011;9636;47.382;8.480;2023-10-13T03:44:20;2.72;;;1.70;;
19006;SDS011;9636;47.382;8.480;2023-10-13T03:46:47;2.50;;;1.92;;
19006;SDS011;9636;47.382;8.480;2023-10-13T03:49:14;2.03;;;1.83;;
19006;SDS011;9636;47.382;8.480;2023-10-13T03:51:46;1.95;;;1.65;;
19006;SDS011;9636;47.382;8.480;2023-10-13T03:54:14;1.90;;;1.60;;
19006;SDS011;9636;47.382;8.480;2023-10-13T03:56:42;2.83;;;1.90;;
19006;SDS011;9636;47.382;8.480;2023-10-13T03:59:10;2.25;;;1.90;;
19006;SDS011;9636;47.382;8.480;2023-10-13T04:01:45;2.95;;;1.77;;
19006;SDS011;9636;47.382;8.480;2023-10-13T04:04:23;1.83;;;1.73;;
19006;SDS011;9636;47.382;8.480;2023-10-13T04:06:59;2.17;;;1.70;;
19006;SDS011;9636;47.382;8.480;2023-10-13T04:09:45;2.05;;;1.80;;
19006;SDS011;9636;47.382;8.480;2023-10-13T04:12:30;1.80;;;1.70;;
19006;SDS011;9636;47.382;8.480;2023-10-13T04:15:20;1.90;;;1.80;;
19006;SDS011;9636;47.382;8.480;2023-10-13T04:17:53;2.05;;;1.85;;
19006;SDS011;9636;47.382;8.480;2023-10-13T04:20:20;1.77;;;1.67;;
19006;SDS011;9636;47.382;8.480;2023-10-13T04:22:58;1.83;;;1.70;;
19006;SDS011;9636;47.382;8.480;2023-10-13T04:25:42;2.08;;;1.83;;
19006;SDS011;9636;47.382;8.480;2023-10-13T04:28:26;1.77;;;1.60;;
19006;SDS011;9636;47.382;8.480;2023-10-13T04:31:15;1.70;;;1.60;;
19006;SDS011;9636;47.382;8.480;2023-10-13T04:34:10;2.33;;;1.60;;
19006;SDS011;9636;47.382;8.480;2023-10-13T04:36:44;2.28;;;1.80;;
19006;SDS011;9636;47.382;8.480;2023-10-13T04:39:11;1.60;;;1.50;;
19006;SDS011;9636;47.382;8.480;2023-10-13T04:41:54;2.03;;;1.90;;
19006;SDS011;9636;47.382;8.480;2023-10-13T04:44:23;1.80;;;1.70;;
19006;SDS011;9636;47.382;8.480;2023-10-13T04:47:04;2.35;;;1.77;;
19006;SDS011;9636;47.382;8.480;2023-10-13T04:49:36;1.90;;;1.80;;
19006;SDS011;9636;47.382;8.480;2023-10-13T04:52:15;2.65;;;1.95;;
19006;SDS011;9636;47.382;8.480;2023-10-13T04:55:04;1.90;;;1.60;;
19006;SDS011;9636;47.382;8.480;2023-10-13T04:57:58;3.97;;;1.90;;
19006;SDS011;9636;47.382;8.480;2023-10-13T05:00:39;1.80;;;1.60;;
19006;SDS011;9636;47.382;8.480;2023-10-13T05:03:34;2.60;;;2.10;;
19006;SDS011;9636;47.382;8.480;2023-10-13T05:06:19;1.73;;;1.60;;
19006;SDS011;9636;47.382;8.480;2023-10-13T05:09:06;2.05;;;1.80;;
19006;SDS011;9636;47.382;8.480;2023-10-13T05:11:50;2.33;;;1.60;;
19006;SDS011;9636;47.382;8.480;2023-10-13T05:14:34;2.40;;;1.85;;
19006;SDS011;9636;47.382;8.480;2023-10-13T05:17:18;1.60;;;1.50;;
19006;SDS011;9636;47.382;8.480;2023-10-13T05:20:03;2.05;;;1.85;;
19006;SDS011;9636;47.382;8.480;2023-10-13T05:22:49;1.98;;;1.77;;
19006;SDS011;9636;47.382;8.480;2023-10-13T05:44:58;2.20;;;1.55;;
19006;SDS011;9636;47.382;8.480;2023-10-13T05:47:48;4.03;;;1.77;;
19006;SDS011;9636;47.382;8.480;2023-10-13T05:50:26;3.17;;;1.60;;
19006;SDS011;9636;47.382;8.480;2023-10-13T05:53:22;2.77;;;1.43;;
19006;SDS011;9636;47.382;8.480;2023-10-13T05:56:22;2.03;;;1.67;;
19006;SDS011;9636;47.382;8.480;2023-10-13T05:59:07;1.85;;;1.55;;
19006;SDS011;9636;47.382;8.480;2023-10-13T06:01:51;1.92;;;1.80;;
19006;SDS011;9636;47.382;8.480;2023-10-13T06:04:35;3.50;;;1.70;;
19006;SDS011;9636;47.382;8.480;2023-10-13T06:07:19;2.17;;;1.98;;
19006;SDS011;9636;47.382;8.480;2023-10-13T07:09:25;1.75;;;1.60;;
19006;SDS011;9636;47.382;8.480;2023-10-13T07:12:14;1.80;;;1.65;;
19006;SDS011;9636;47.382;8.480;2023-10-13T07:14:46;2.05;;;1.67;;
19006;SDS011;9636;47.382;8.480;2023-10-13T07:17:18;1.60;;;1.50;;
19006;SDS011;9636;47.382;8.480;2023-10-13T07:19:50;2.35;;;1.80;;
19006;SDS011;9636;47.382;8.480;2023-10-13T07:22:24;2.22;;;1.70;;
19006;SDS011;9636;47.382;8.480;2023-10-13T07:24:53;2.15;;;1.83;;
19006;SDS011;9636;47.382;8.480;2023-10-13T07:27:23;2.22;;;1.60;;
19006;SDS011;9636;47.382;8.480;2023-10-13T07:29:50;1.70;;;1.50;;
19006;SDS011;9636;47.382;8.480;2023-10-13T07:32:39;3.42;;;1.80;;
19006;SDS011;9636;47.382;8.480;2023-10-13T07:35:10;2.50;;;1.90;;
19006;SDS011;9636;47.382;8.480;2023-10-13T07:37:37;1.60;;;1.50;;
19006;SDS011;9636;47.382;8.480;2023-10-13T07:40:06;2.00;;;1.80;;
19006;SDS011;9636;47.382;8.480;2023-10-13T07:42:55;3.17;;;1.95;;
19006;SDS011;9636;47.382;8.480;2023-10-13T07:45:25;1.60;;;1.50;;
19006;SDS011;9636;47.382;8.480;2023-10-13T07:48:02;2.00;;;1.50;;
19006;SDS011;9636;47.382;8.480;2023-10-13T07:50:37;1.70;;;1.60;;
19006;SDS011;9636;47.382;8.480;2023-10-13T07:53:05;2.00;;;1.70;;
19006;SDS011;9636;47.382;8.480;2023-10-13T07:55:44;1.75;;;1.65;;
19006;SDS011;9636;47.382;8.480;2023-10-13T07:58:11;1.70;;;1.60;;
19006;SDS011;9636;47.382;8.480;2023-10-13T08:00:38;1.80;;;1.70;;
19006;SDS011;9636;47.382;8.480;2023-10-13T08:03:14;1.80;;;1.70;;
19006;SDS011;9636;47.382;8.480;2023-10-13T08:05:57;2.50;;;1.85;;
19006;SDS011;9636;47.382;8.480;2023-10-13T08:08:29;2.37;;;1.60;;
19006;SDS011;9636;47.382;8.480;2023-10-13T08:13:36;1.70;;;1.60;;
19006;SDS011;9636;47.382;8.480;2023-10-13T08:16:05;1.70;;;1.60;;
19006;SDS011;9636;47.382;8.480;2023-10-13T08:18:35;1.60;;;1.50;;
19006;SDS011;9636;47.382;8.480;2023-10-13T08:21:06;2.38;;;1.85;;
19006;SDS011;9636;47.382;8.480;2023-10-13T08:23:41;1.90;;;1.80;;
19006;SDS011;9636;47.382;8.480;2023-10-13T08:26:31;2.08;;;1.80;;
19006;SDS011;9636;47.382;8.480;2023-10-13T08:32:34;1.65;;;1.55;;
19006;SDS011;9636;47.382;8.480;2023-10-13T08:35:20;2.90;;;1.65;;
19006;SDS011;9636;47.382;8.480;2023-10-13T08:38:19;1.90;;;1.70;;
19006;SDS011;9636;47.382;8.480;2023-10-13T08:40:53;1.67;;;1.50;;
19006;SDS011;9636;47.382;8.480;2023-10-13T08:43:50;2.67;;;1.77;;
19006;SDS011;9636;47.382;8.480;2023-10-13T08:46:19;2.00;;;1.80;;
19006;SDS011;9636;47.382;8.480;2023-10-13T08:48:55;2.60;;;1.50;;
19006;SDS011;9636;47.382;8.480;2023-10-13T08:51:35;1.77;;;1.65;;
19006;SDS011;9636;47.382;8.480;2023-10-13T08:54:14;1.60;;;1.50;;
19006;SDS011;9636;47.382;8.480;2023-10-13T08:56:58;1.95;;;1.60;;
19006;SDS011;9636;47.382;8.480;2023-10-13T08:59:31;2.08;;;1.90;;
19006;SDS011;9636;47.382;8.480;2023-10-13T09:02:14;1.95;;;1.77;;
19006;SDS011;9636;47.382;8.480;2023-10-13T09:04:44;2.17;;;1.48;;
19006;SDS011;9636;47.382;8.480;2023-10-13T09:07:13;2.10;;;1.65;;
19006;SDS011;9636;47.382;8.480;2023-10-13T09:09:47;1.88;;;1.65;;
19006;SDS011;9636;47.382;8.480;2023-10-13T09:12:36;1.90;;;1.40;;
19006;SDS011;9636;47.382;8.480;2023-10-13T09:15:05;1.85;;;1.55;;
19006;SDS011;9636;47.382;8.480;2023-10-13T09:17:45;2.17;;;1.65;;
19006;SDS011;9636;47.382;8.480;2023-10-13T09:20:16;1.98;;;1.80;;
19006;SDS011;9636;47.382;8.480;2023-10-13T09:22:59;2.72;;;1.70;;
19006;SDS011;9636;47.382;8.480;2023-10-13T09:25:37;1.98;;;1.38;;
19006;SDS011;9636;47.382;8.480;2023-10-13T09:28:18;2.35;;;1.42;;
19006;SDS011;9636;47.382;8.480;2023-10-13T09:30:48;1.70;;;1.60;;
19006;SDS011;9636;47.382;8.480;2023-10-13T09:33:19;1.73;;;1.60;;
19006;SDS011;9636;47.382;8.480;2023-10-13T09:35:53;1.70;;;1.60;;
19006;SDS011;9636;47.382;8.480;2023-10-13T09:38:25;1.60;;;1.50;;
19006;SDS011;9636;47.382;8.480;2023-10-13T09:40:53;2.42;;;1.50;;
19006;SDS011;9636;47.382;8.480;2023-10-13T09:43:22;1.77;;;1.48;;
19006;SDS011;9636;47.382;8.480;2023-10-13T09:45:51;1.70;;;1.60;;
19006;SDS011;9636;47.382;8.480;2023-10-13T09:48:30;2.35;;;1.80;;
19006;SDS011;9636;47.382;8.480;2023-10-13T09:50:59;2.55;;;1.63;;
19006;SDS011;9636;47.382;8.480;2023-10-13T09:53:31;1.60;;;1.50;;
19006;SDS011;9636;47.382;8.480;2023-10-13T09:55:59;1.52;;;1.42;;
19006;SDS011;9636;47.382;8.480;2023-10-13T09:58:41;2.08;;;1.58;;
19006;SDS011;9636;47.382;8.480;2023-10-13T10:01:17;1.60;;;1.50;;
19006;SDS011;9636;47.382;8.480;2023-10-13T10:04:06;1.88;;;1.20;;
19006;SDS011;9636;47.382;8.480;2023-10-13T10:06:34;1.75;;;1.58;;
19006;SDS011;9636;47.382;8.480;2023-10-13T10:09:10;1.75;;;1.55;;
19006;SDS011;9636;47.382;8.480;2023-10-13T10:11:48;1.65;;;1.52;;
19006;SDS011;9636;47.382;8.480;2023-10-13T10:15:04;2.35;;;1.30;;
19006;SDS011;9636;47.382;8.480;2023-10-13T10:17:39;1.60;;;1.50;;
19006;SDS011;9636;47.382;8.480;2023-10-13T10:20:07;2.85;;;1.60;;
19006;SDS011;9636;47.382;8.480;2023-10-13T10:22:54;2.45;;;1.38;;
19006;SDS011;9636;47.382;8.480;2023-10-13T10:25:29;2.13;;;1.40;;
19006;SDS011;9636;47.382;8.480;2023-10-13T10:28:00;1.70;;;1.60;;
19006;SDS011;9636;47.382;8.480;2023-10-13T10:30:31;1.60;;;1.50;;
19006;SDS011;9636;47.382;8.480;2023-10-13T10:32:59;1.55;;;1.45;;
19006;SDS011;9636;47.382;8.480;2023-10-13T10:35:32;1.50;;;1.40;;
19006;SDS011;9636;47.382;8.480;2023-10-13T10:38:06;1.60;;;1.50;;
19006;SDS011;9636;47.382;8.480;2023-10-13T10:40:51;1.75;;;1.40;;
19006;SDS011;9636;47.382;8.480;2023-10-13T10:43:24;2.97;;;1.80;;
19006;SDS011;9636;47.382;8.480;2023-10-13T10:45:53;1.75;;;1.50;;
19006;SDS011;9636;47.382;8.480;2023-10-13T10:48:24;1.67;;;1.58;;
19006;SDS011;9636;47.382;8.480;2023-10-13T10:50:56;1.83;;;1.48;;
19006;SDS011;9636;47.382;8.480;2023-10-13T10:53:31;2.05;;;1.33;;
19006;SDS011;9636;47.382;8.480;2023-10-13T10:56:10;1.50;;;1.40;;
19006;SDS011;9636;47.382;8.480;2023-10-13T10:58:48;1.73;;;1.50;;
19006;SDS011;9636;47.382;8.480;2023-10-13T11:01:20;1.80;;;1.70;;
19006;SDS011;9636;47.382;8.480;2023-10-13T11:03:53;1.40;;;1.30;;
19006;SDS011;9636;47.382;8.480;2023-10-13T11:06:23;1.77;;;1.50;;
19006;SDS011;9636;47.382;8.480;2023-10-13T11:09:00;1.88;;;1.45;;
19006;SDS011;9636;47.382;8.480;2023-10-13T11:11:30;1.38;;;1.27;;
19006;SDS011;9636;47.382;8.480;2023-10-13T11:14:00;1.55;;;1.40;;
19006;SDS011;9636;47.382;8.480;2023-10-13T11:16:46;1.50;;;1.40;;
19006;SDS011;9636;47.382;8.480;2023-10-13T11:19:16;1.23;;;1.13;;
19006;SDS011;9636;47.382;8.480;2023-10-13T11:21:46;1.42;;;1.33;;
19006;SDS011;9636;47.382;8.480;2023-10-13T11:24:13;1.40;;;1.30;;
19006;SDS011;9636;47.382;8.480;2023-10-13T11:26:44;1.73;;;1.20;;
19006;SDS011;9636;47.382;8.480;2023-10-13T11:29:15;1.30;;;1.20;;
19006;SDS011;9636;47.382;8.480;2023-10-13T11:31:45;1.30;;;1.20;;
19006;SDS011;9636;47.382;8.480;2023-10-13T11:34:18;1.38;;;1.27;;
19006;SDS011;9636;47.382;8.480;2023-10-13T11:36:45;1.30;;;1.20;;
19006;SDS011;9636;47.382;8.480;2023-10-13T11:39:12;1.27;;;1.17;;
19006;SDS011;9636;47.382;8.480;2023-10-13T11:41:45;3.03;;;1.30;;
19006;SDS011;9636;47.382;8.480;2023-10-13T11:44:19;1.42;;;1.33;;
19006;SDS011;9636;47.382;8.480;2023-10-13T11:46:49;1.30;;;1.13;;
19006;SDS011;9636;47.382;8.480;2023-10-13T11:49:23;2.08;;;1.35;;
19006;SDS011;9636;47.382;8.480;2023-10-13T11:51:58;1.70;;;1.60;;
19006;SDS011;9636;47.382;8.480;2023-10-13T11:54:43;1.38;;;1.20;;
19006;SDS011;9636;47.382;8.480;2023-10-13T11:57:13;1.30;;;1.20;;
19006;SDS011;9636;47.382;8.480;2023-10-13T11:59:44;1.40;;;1.30;;
19006;SDS011;9636;47.382;8.480;2023-10-13T12:02:18;1.35;;;1.25;;
19006;SDS011;9636;47.382;8.480;2023-10-13T12:05:03;1.33;;;1.10;;
19006;SDS011;9636;47.382;8.480;2023-10-13T12:07:37;1.58;;;1.42;;
19006;SDS011;9636;47.382;8.480;2023-10-13T12:10:13;1.50;;;1.40;;
19006;SDS011;9636;47.382;8.480;2023-10-13T12:13:00;1.52;;;1.15;;
19006;SDS011;9636;47.382;8.480;2023-10-13T12:15:33;1.38;;;1.20;;
19006;SDS011;9636;47.382;8.480;2023-10-13T12:18:16;1.40;;;1.30;;
19006;SDS011;9636;47.382;8.480;2023-10-13T12:20:44;1.35;;;1.25;;
19006;SDS011;9636;47.382;8.480;2023-10-13T12:23:12;2.17;;;1.30;;
19006;SDS011;9636;47.382;8.480;2023-10-13T12:25:42;1.17;;;1.08;;
19006;SDS011;9636;47.382;8.480;2023-10-13T12:28:26;1.20;;;1.10;;
19006;SDS011;9636;47.382;8.480;2023-10-13T12:30:54;1.40;;;1.30;;
19006;SDS011;9636;47.382;8.480;2023-10-13T12:33:24;1.13;;;1.05;;
19006;SDS011;9636;47.382;8.480;2023-10-13T12:35:58;1.35;;;1.25;;
19006;SDS011;9636;47.382;8.480;2023-10-13T12:38:53;1.23;;;1.17;;
19006;SDS011;9636;47.382;8.480;2023-10-13T12:41:38;1.10;;;1.10;;
19006;SDS011;9636;47.382;8.480;2023-10-13T12:44:24;1.52;;;1.42;;
19006;SDS011;9636;47.382;8.480;2023-10-13T12:47:08;1.35;;;1.25;;
19006;SDS011;9636;47.382;8.480;2023-10-13T12:49:52;1.35;;;1.25;;
19006;SDS011;9636;47.382;8.480;2023-10-13T12:52:24;1.38;;;1.27;;
19006;SDS011;9636;47.382;8.480;2023-10-13T12:54:52;1.25;;;1.17;;
19006;SDS011;9636;47.382;8.480;2023-10-13T12:57:31;1.60;;;1.50;;
19006;SDS011;9636;47.382;8.480;2023-10-13T12:59:59;1.40;;;1.30;;
19006;SDS011;9636;47.382;8.480;2023-10-13T13:02:41;1.40;;;1.30;;
19006;SDS011;9636;47.382;8.480;2023-10-13T13:05:08;1.10;;;1.10;;
19006;SDS011;9636;47.382;8.480;2023-10-13T13:07:37;1.20;;;1.10;;
19006;SDS011;9636;47.382;8.480;2023-10-13T13:10:12;1.52;;;1.40;;
19006;SDS011;9636;47.382;8.480;2023-10-13T13:12:40;1.10;;;1.10;;
19006;SDS011;9636;47.382;8.480;2023-10-13T13:15:08;1.40;;;1.30;;
19006;SDS011;9636;47.382;8.480;2023-10-13T13:17:37;1.33;;;1.23;;
19006;SDS011;9636;47.382;8.480;2023-10-13T13:20:04;1.38;;;1.08;;
19006;SDS011;9636;47.382;8.480;2023-10-13T13:22:37;1.20;;;1.10;;
19006;SDS011;9636;47.382;8.480;2023-10-13T13:25:04;1.30;;;1.20;;
19006;SDS011;9636;47.382;8.480;2023-10-13T13:27:34;1.20;;;1.10;;
19006;SDS011;9636;47.382;8.480;2023-10-13T13:30:01;1.02;;;1.00;;
19006;SDS011;9636;47.382;8.480;2023-10-13T13:32:38;1.30;;;1.20;;
19006;SDS011;9636;47.382;8.480;2023-10-13T13:35:06;2.23;;;1.27;;
19006;SDS011;9636;47.382;8.480;2023-10-13T13:37:38;1.52;;;1.20;;
19006;SDS011;9636;47.382;8.480;2023-10-13T13:40:08;2.20;;;1.20;;
19006;SDS011;9636;47.382;8.480;2023-10-13T13:42:41;1.10;;;1.10;;
19006;SDS011;9636;47.382;8.480;2023-10-13T13:45:12;0.90;;;0.90;;
19006;SDS011;9636;47.382;8.480;2023-10-13T13:47:48;1.20;;;1.10;;
19006;SDS011;9636;47.382;8.480;2023-10-13T13:50:18;1.10;;;1.10;;
19006;SDS011;9636;47.382;8.480;2023-10-13T13:52:50;1.20;;;1.10;;
19006;SDS011;9636;47.382;8.480;2023-10-13T13:55:18;1.00;;;1.00;;
19006;SDS011;9636;47.382;8.480;2023-10-13T13:57:45;1.10;;;1.10;;
19006;SDS011;9636;47.382;8.480;2023-10-13T14:00:15;1.20;;;1.10;;
19006;SDS011;9636;47.382;8.480;2023-10-13T14:02:45;1.10;;;1.10;;
19006;SDS011;9636;47.382;8.480;2023-10-13T14:05:14;1.17;;;1.08;;
19006;SDS011;9636;47.382;8.480;2023-10-13T14:07:42;1.10;;;1.00;;
19006;SDS011;9636;47.382;8.480;2023-10-13T14:10:13;1.42;;;1.15;;
19006;SDS011;9636;47.382;8.480;2023-10-13T14:12:56;1.10;;;1.00;;
19006;SDS011;9636;47.382;8.480;2023-10-13T14:15:31;1.20;;;1.10;;
19006;SDS011;9636;47.382;8.480;2023-10-13T14:18:05;1.15;;;1.10;;
19006;SDS011;9636;47.382;8.480;2023-10-13T14:20:39;0.98;;;0.98;;
19006;SDS011;9636;47.382;8.480;2023-10-13T14:23:07;1.40;;;1.13;;
19006;SDS011;9636;47.382;8.480;2023-10-13T14:25:36;1.20;;;1.10;;
19006;SDS011;9636;47.382;8.480;2023-10-13T14:28:09;1.17;;;1.10;;
19006;SDS011;9636;47.382;8.480;2023-10-13T14:30:36;1.00;;;0.90;;
19006;SDS011;9636;47.382;8.480;2023-10-13T14:33:03;1.70;;;1.23;;
19006;SDS011;9636;47.382;8.480;2023-10-13T14:35:36;0.90;;;0.90;;
19006;SDS011;9636;47.382;8.480;2023-10-13T14:38:04;1.25;;;1.15;;
19006;SDS011;9636;47.382;8.480;2023-10-13T14:40:32;0.90;;;0.80;;
19006;SDS011;9636;47.382;8.480;2023-10-13T14:42:59;1.10;;;1.10;;
19006;SDS011;9636;47.382;8.480;2023-10-13T14:45:26;1.13;;;1.05;;
19006;SDS011;9636;47.382;8.480;2023-10-13T14:47:53;1.00;;;1.00;;
19006;SDS011;9636;47.382;8.480;2023-10-13T14:50:20;1.10;;;1.05;;
19006;SDS011;9636;47.382;8.480;2023-10-13T14:52:47;0.95;;;0.95;;
19006;SDS011;9636;47.382;8.480;2023-10-13T14:55:15;1.75;;;1.05;;
19006;SDS011;9636;47.382;8.480;2023-10-13T14:57:45;1.20;;;1.10;;
19006;SDS011;9636;47.382;8.480;2023-10-13T15:00:15;1.52;;;1.20;;
19006;SDS011;9636;47.382;8.480;2023-10-13T15:02:49;1.92;;;0.93;;
19006;SDS011;9636;47.382;8.480;2023-10-13T15:05:17;1.17;;;1.08;;
19006;SDS011;9636;47.382;8.480;2023-10-13T15:07:44;1.00;;;1.00;;
19006;SDS011;9636;47.382;8.480;2023-10-13T15:10:12;2.13;;;1.00;;
19006;SDS011;9636;47.382;8.480;2023-10-13T15:12:42;0.90;;;0.90;;
19006;SDS011;9636;47.382;8.480;2023-10-13T15:15:09;1.00;;;1.00;;
19006;SDS011;9636;47.382;8.480;2023-10-13T15:17:41;1.00;;;0.90;;
19006;SDS011;9636;47.382;8.480;2023-10-13T15:20:08;1.15;;;1.05;;
19006;SDS011;9636;47.382;8.480;2023-10-13T15:22:36;0.90;;;0.90;;
19006;SDS011;9636;47.382;8.480;2023-10-13T15:25:04;1.33;;;1.10;;
19006;SDS011;9636;47.382;8.480;2023-10-13T15:27:43;0.90;;;0.90;;
19006;SDS011;9636;47.382;8.480;2023-10-13T15:30:15;1.23;;;1.10;;
19006;SDS011;9636;47.382;8.480;2023-10-13T15:32:51;1.00;;;1.00;;
19006;SDS011;9636;47.382;8.480;2023-10-13T15:35:18;0.90;;;0.90;;
19006;SDS011;9636;47.382;8.480;2023-10-13T15:37:48;1.25;;;1.00;;
19006;SDS011;9636;47.382;8.480;2023-10-13T15:40:16;1.08;;;1.08;;
19006;SDS011;9636;47.382;8.480;2023-10-13T15:42:45;0.93;;;0.93;;
19006;SDS011;9636;47.382;8.480;2023-10-13T15:45:12;0.93;;;0.90;;
19006;SDS011;9636;47.382;8.480;2023-10-13T15:47:47;0.98;;;0.90;;
19006;SDS011;9636;47.382;8.480;2023-10-13T15:50:14;0.98;;;0.98;;
19006;SDS011;9636;47.382;8.480;2023-10-13T15:52:44;0.85;;;0.85;;
19006;SDS011;9636;47.382;8.480;2023-10-13T15:55:12;1.20;;;1.10;;
19006;SDS011;9636;47.382;8.480;2023-10-13T15:57:40;1.17;;;1.05;;
19006;SDS011;9636;47.382;8.480;2023-10-13T16:00:10;1.00;;;1.00;;
19006;SDS011;9636;47.382;8.480;2023-10-13T16:02:50;1.08;;;1.08;;
19006;SDS011;9636;47.382;8.480;2023-10-13T16:05:19;1.05;;;1.02;;
19006;SDS011;9636;47.382;8.480;2023-10-13T16:07:48;1.10;;;1.00;;
19006;SDS011;9636;47.382;8.480;2023-10-13T16:10:17;1.75;;;1.10;;
19006;SDS011;9636;47.382;8.480;2023-10-13T16:12:44;2.35;;;1.23;;
19006;SDS011;9636;47.382;8.480;2023-10-13T16:15:12;0.90;;;0.90;;
19006;SDS011;9636;47.382;8.480;2023-10-13T16:17:39;1.25;;;1.15;;
19006;SDS011;9636;47.382;8.480;2023-10-13T16:20:07;1.00;;;1.00;;
19006;SDS011;9636;47.382;8.480;2023-10-13T16:22:41;1.20;;;1.10;;
19006;SDS011;9636;47.382;8.480;2023-10-13T16:25:11;1.10;;;1.00;;
19006;SDS011;9636;47.382;8.480;2023-10-13T16:27:39;1.13;;;1.10;;
19006;SDS011;9636;47.382;8.480;2023-10-13T16:30:12;5.68;;;2.40;;
19006;SDS011;9636;47.382;8.480;2023-10-13T16:32:42;7.40;;;3.20;;
19006;SDS011;9636;47.382;8.480;2023-10-13T16:35:11;7.90;;;2.88;;
19006;SDS011;9636;47.382;8.480;2023-10-13T16:37:41;9.00;;;3.22;;
19006;SDS011;9636;47.382;8.480;2023-10-13T16:40:11;7.38;;;3.28;;
19006;SDS011;9636;47.382;8.480;2023-10-13T16:42:43;8.35;;;3.10;;
19006;SDS011;9636;47.382;8.480;2023-10-13T16:45:11;5.88;;;2.90;;
19006;SDS011;9636;47.382;8.480;2023-10-13T16:47:45;8.68;;;3.10;;
19006;SDS011;9636;47.382;8.480;2023-10-13T16:50:12;5.43;;;2.95;;
19006;SDS011;9636;47.382;8.480;2023-10-13T16:52:41;4.60;;;2.80;;
19006;SDS011;9636;47.382;8.480;2023-10-13T16:55:11;8.20;;;3.20;;
19006;SDS011;9636;47.382;8.480;2023-10-13T16:57:38;6.15;;;3.00;;
19006;SDS011;9636;47.382;8.480;2023-10-13T17:00:05;8.10;;;2.97;;
19006;SDS011;9636;47.382;8.480;2023-10-13T17:02:37;5.05;;;2.85;;
19006;SDS011;9636;47.382;8.480;2023-10-13T17:05:07;17.50;;;3.53;;
19006;SDS011;9636;47.382;8.480;2023-10-13T17:07:36;19.08;;;3.58;;